Terminal Aerodrome Forecast
Issued by NWS

Current Version | Previous Version | Graphics & Text | Print | Product List | Glossary On
Versions: 1 2 3 4 5 6 7 8 9 10 11 12 13 14 15 16
462
FTUS41 KPBZ 192337
TAFHLG
TAF
KHLG 192337Z 2000/2024 22010G16KT P6SM VCTS BKN035CB
     FM200600 23007KT P6SM BKN030
     FM200900 26005KT P6SM BKN008
     FM201100 28005KT 6SM BR BKN015
     FM201700 VRB03KT P6SM BKN025=

USA.gov is the U.S. government's official web portal to all federal, state and local government web resources and services.